createdAt,value
2017-11-27T00:00:53.569Z,92.80
2017-11-27T00:03:21.126Z,93.00
2017-11-27T00:05:49.219Z,93.00
2017-11-27T00:08:16.706Z,92.90
2017-11-27T00:10:44.241Z,92.70
2017-11-27T00:13:11.720Z,92.80
2017-11-27T00:15:39.173Z,93.00
2017-11-27T00:18:06.654Z,93.10
2017-11-27T00:20:34.165Z,93.20
2017-11-27T00:23:01.803Z,93.00
2017-11-27T00:25:29.258Z,93.20
2017-11-27T00:27:56.754Z,92.90
2017-11-27T00:30:24.223Z,92.60
2017-11-27T00:32:51.808Z,92.90
2017-11-27T00:35:20.054Z,92.50
2017-11-27T00:37:47.520Z,92.50
2017-11-27T00:40:15.782Z,92.70
2017-11-27T00:42:43.240Z,92.40
2017-11-27T00:45:10.717Z,92.60
2017-11-27T00:47:39.085Z,92.10
2017-11-27T00:50:07.518Z,92.30
2017-11-27T00:52:34.977Z,92.30
2017-11-27T00:55:02.466Z,92.20
2017-11-27T00:57:29.928Z,92.10
2017-11-27T00:59:57.401Z,92.00
2017-11-27T01:02:25.638Z,92.10
2017-11-27T01:04:53.132Z,92.10
2017-11-27T01:07:21.390Z,92.30
2017-11-27T01:09:49.662Z,92.50
2017-11-27T01:12:17.356Z,92.40
2017-11-27T01:14:44.810Z,92.10
2017-11-27T01:17:12.293Z,92.40
2017-11-27T01:19:39.781Z,92.30
2017-11-27T01:22:07.251Z,92.10
2017-11-27T01:24:34.706Z,92.20
2017-11-27T01:27:02.176Z,92.30
2017-11-27T01:29:30.498Z,92.70
2017-11-27T01:31:58.052Z,92.70
2017-11-27T01:34:25.522Z,92.90
2017-11-27T01:36:52.989Z,92.80
2017-11-27T01:39:20.447Z,92.80
2017-11-27T01:41:47.936Z,92.90
2017-11-27T01:44:15.399Z,92.70
2017-11-27T01:46:43.615Z,93.00
2017-11-27T01:49:11.087Z,93.00
2017-11-27T01:51:38.605Z,92.50
2017-11-27T01:54:06.131Z,92.40
2017-11-27T01:56:34.455Z,92.60
2017-11-27T01:59:01.925Z,92.60
2017-11-27T02:01:29.375Z,92.60
2017-11-27T02:03:56.850Z,92.50
2017-11-27T02:06:24.367Z,92.20
2017-11-27T02:08:52.733Z,92.40
2017-11-27T02:11:20.966Z,92.40
2017-11-27T02:13:48.445Z,92.40
2017-11-27T02:16:15.957Z,92.30
2017-11-27T02:18:43.527Z,92.20
2017-11-27T02:21:11.003Z,91.90
2017-11-27T02:23:38.470Z,92.20
2017-11-27T02:26:05.963Z,92.10
2017-11-27T02:28:34.273Z,92.20
2017-11-27T02:31:01.892Z,92.20
2017-11-27T02:33:30.126Z,92.20
2017-11-27T02:35:57.712Z,92.10
2017-11-27T02:38:25.172Z,92.00
2017-11-27T02:40:52.643Z,92.20
2017-11-27T02:43:20.891Z,91.70
2017-11-27T02:45:48.359Z,91.70
2017-11-27T02:48:15.866Z,91.70
2017-11-27T02:50:43.334Z,91.70
2017-11-27T02:53:10.802Z,91.60
2017-11-27T02:55:38.265Z,91.70
2017-11-27T02:58:05.865Z,91.60
2017-11-27T03:00:34.101Z,91.70
2017-11-27T03:03:01.740Z,91.70
2017-11-27T03:05:29.229Z,91.70
2017-11-27T03:07:57.166Z,91.60
2017-11-27T03:10:24.652Z,91.30
2017-11-27T03:12:52.126Z,91.50
2017-11-27T03:15:20.424Z,91.40
2017-11-27T03:17:48.643Z,91.30
2017-11-27T03:20:16.111Z,91.30
2017-11-27T03:22:43.582Z,91.40
2017-11-27T03:25:11.166Z,91.30
2017-11-27T03:27:39.390Z,91.40
2017-11-27T03:30:06.943Z,91.40
2017-11-27T03:32:34.402Z,91.60
2017-11-27T03:35:01.948Z,91.50
2017-11-27T03:37:29.417Z,91.50
2017-11-27T03:39:56.885Z,91.30
2017-11-27T03:42:24.462Z,91.40
2017-11-27T03:44:51.926Z,91.40
2017-11-27T03:47:20.332Z,91.40
2017-11-27T03:49:47.809Z,91.40
2017-11-27T03:52:15.275Z,91.60
2017-11-27T03:54:42.739Z,91.40
2017-11-27T03:57:10.261Z,91.40
2017-11-27T03:59:37.721Z,91.40
2017-11-27T04:02:05.210Z,91.40
2017-11-27T04:04:32.690Z,91.50
2017-11-27T04:07:00.158Z,91.30
2017-11-27T04:09:27.613Z,91.40
2017-11-27T04:11:55.079Z,91.40
2017-11-27T04:14:23.333Z,91.50
2017-11-27T04:16:50.808Z,91.50
2017-11-27T04:19:18.291Z,91.50
2017-11-27T04:21:45.754Z,91.90
2017-11-27T04:24:13.224Z,91.50
2017-11-27T04:26:40.833Z,91.50
2017-11-27T04:29:08.295Z,91.60
2017-11-27T04:31:35.766Z,91.50
2017-11-27T04:34:03.995Z,91.40
2017-11-27T04:36:31.474Z,91.40
2017-11-27T04:38:59.139Z,91.50
2017-11-27T04:41:26.805Z,91.40
2017-11-27T04:43:54.255Z,91.40
2017-11-27T04:46:21.732Z,91.40
2017-11-27T04:48:49.946Z,91.20
2017-11-27T04:51:17.406Z,91.20
2017-11-27T04:53:44.895Z,91.20
2017-11-27T04:56:12.370Z,91.20
2017-11-27T04:58:40.639Z,91.00
2017-11-27T05:01:08.088Z,91.00
2017-11-27T05:03:35.575Z,91.10
2017-11-27T05:06:03.813Z,90.90
2017-11-27T05:08:31.285Z,90.90
2017-11-27T05:10:59.522Z,91.00
2017-11-27T05:13:27.027Z,90.90
2017-11-27T05:15:55.392Z,90.90
2017-11-27T05:18:22.910Z,90.80
2017-11-27T05:20:50.398Z,91.10
2017-11-27T05:23:17.868Z,90.80
2017-11-27T05:25:45.333Z,90.70
2017-11-27T05:28:14.197Z,90.50
2017-11-27T05:30:41.681Z,90.50
2017-11-27T05:33:09.903Z,90.40
2017-11-27T05:35:37.357Z,90.40
2017-11-27T05:38:04.829Z,90.40
2017-11-27T05:40:32.419Z,90.40
2017-11-27T05:42:59.947Z,90.40
2017-11-27T05:45:27.483Z,90.50
2017-11-27T05:47:55.092Z,90.40
2017-11-27T05:50:22.659Z,90.40
2017-11-27T05:52:51.080Z,90.20
2017-11-27T05:55:18.648Z,90.20
2017-11-27T05:57:46.165Z,90.20
2017-11-27T06:00:14.418Z,90.20
2017-11-27T06:02:41.882Z,90.20
2017-11-27T06:05:09.344Z,90.20
2017-11-27T06:07:37.634Z,90.00
2017-11-27T06:10:05.099Z,90.00
2017-11-27T06:12:32.577Z,90.00
2017-11-27T06:15:00.045Z,90.20
2017-11-27T06:17:27.534Z,90.20
2017-11-27T06:19:55.134Z,90.10
2017-11-27T06:24:58.097Z,90.10
2017-11-27T06:27:25.836Z,90.10
2017-11-27T06:29:53.319Z,90.10
2017-11-27T06:32:20.775Z,90.00
2017-11-27T06:34:48.246Z,90.10
2017-11-27T06:37:16.489Z,90.20
2017-11-27T06:39:43.956Z,90.10
2017-11-27T06:42:11.430Z,90.30
2017-11-27T06:44:39.676Z,90.90
2017-11-27T06:47:07.156Z,90.60
2017-11-27T06:49:34.637Z,90.60
2017-11-27T06:52:02.880Z,91.00
2017-11-27T06:54:30.505Z,91.00
2017-11-27T06:56:57.989Z,91.10
2017-11-27T06:59:25.504Z,90.90
2017-11-27T07:01:53.039Z,91.10
2017-11-27T07:04:21.305Z,91.10
2017-11-27T07:06:49.528Z,91.40
2017-11-27T07:09:17.148Z,91.20
2017-11-27T07:11:45.384Z,91.40
2017-11-27T07:14:12.882Z,91.40
2017-11-27T07:16:41.113Z,91.70
2017-11-27T07:19:08.598Z,91.70
2017-11-27T07:21:36.074Z,92.00
2017-11-27T07:24:04.413Z,92.20
2017-11-27T07:26:31.895Z,92.20
2017-11-27T07:29:00.181Z,92.30
2017-11-27T07:31:28.415Z,92.70
2017-11-27T07:33:55.893Z,92.70
2017-11-27T07:36:23.361Z,92.70
2017-11-27T07:38:57.277Z,93.10
2017-11-27T07:41:25.554Z,93.00
2017-11-27T07:43:53.020Z,93.00
2017-11-27T07:46:20.493Z,93.10
2017-11-27T07:48:47.961Z,93.10
2017-11-27T07:51:15.451Z,93.60
2017-11-27T07:53:43.231Z,93.60
2017-11-27T07:56:11.477Z,94.10
2017-11-27T07:58:39.214Z,94.00
2017-11-27T08:01:06.688Z,93.90
2017-11-27T08:03:34.147Z,94.10
2017-11-27T08:06:01.614Z,94.20
2017-11-27T08:08:29.161Z,94.10
2017-11-27T08:10:56.729Z,94.20
2017-11-27T08:13:24.230Z,94.00
2017-11-27T08:15:52.462Z,94.10
2017-11-27T08:18:19.980Z,94.10
2017-11-27T08:20:47.457Z,94.20
2017-11-27T08:23:14.933Z,94.00
2017-11-27T08:25:43.202Z,94.50
2017-11-27T08:28:10.694Z,94.50
2017-11-27T08:30:38.179Z,94.60
2017-11-27T08:33:05.658Z,94.70
2017-11-27T08:35:33.111Z,94.60
2017-11-27T08:38:00.571Z,94.70
2017-11-27T08:40:28.053Z,94.70
2017-11-27T08:42:55.624Z,95.00
2017-11-27T08:45:24.342Z,95.10
2017-11-27T08:47:52.587Z,95.20
2017-11-27T08:50:20.061Z,95.20
2017-11-27T08:52:48.277Z,95.30
2017-11-27T08:55:15.730Z,95.20
2017-11-27T08:57:43.203Z,95.30
2017-11-27T09:00:10.734Z,95.40
2017-11-27T09:02:38.207Z,95.40
2017-11-27T09:05:07.118Z,95.70
2017-11-27T09:07:34.606Z,95.80
2017-11-27T09:10:02.079Z,95.70
2017-11-27T09:12:30.336Z,95.90
2017-11-27T09:14:57.888Z,95.90
2017-11-27T09:17:25.354Z,95.70
2017-11-27T09:19:53.585Z,95.80
2017-11-27T09:22:21.094Z,95.80
2017-11-27T09:24:49.344Z,95.90
2017-11-27T09:27:16.797Z,95.90
2017-11-27T09:29:44.255Z,95.90
2017-11-27T09:32:11.722Z,96.00
2017-11-27T09:34:39.194Z,96.00
2017-11-27T09:37:06.660Z,96.10
2017-11-27T09:39:34.899Z,96.00
2017-11-27T09:42:02.369Z,96.00
2017-11-27T09:44:29.834Z,96.10
2017-11-27T09:46:57.478Z,96.20
2017-11-27T09:49:24.949Z,96.30
2017-11-27T09:51:52.425Z,96.10
2017-11-27T09:54:20.677Z,96.20
2017-11-27T09:56:48.157Z,96.20
2017-11-27T09:59:16.391Z,96.70
2017-11-27T10:01:43.868Z,96.30
2017-11-27T10:04:11.385Z,96.40
2017-11-27T10:06:38.850Z,96.30
2017-11-27T10:09:06.315Z,96.30
2017-11-27T10:11:33.906Z,96.60
2017-11-27T10:14:02.153Z,96.60
2017-11-27T10:16:29.616Z,96.60
2017-11-27T10:18:57.094Z,96.60
2017-11-27T10:21:24.562Z,96.60
2017-11-27T10:23:52.821Z,96.40
2017-11-27T10:26:20.247Z,96.40
2017-11-27T10:28:47.735Z,96.50
2017-11-27T10:31:15.185Z,96.50
2017-11-27T10:33:42.656Z,96.30
2017-11-27T10:36:10.126Z,96.50
2017-11-27T10:38:38.538Z,96.30
2017-11-27T10:41:06.018Z,96.30
2017-11-27T10:43:33.499Z,96.10
2017-11-27T10:46:00.974Z,96.30
2017-11-27T10:48:29.184Z,96.00
2017-11-27T10:50:56.672Z,96.00
2017-11-27T10:53:24.141Z,96.10
2017-11-27T10:55:51.596Z,96.20
2017-11-27T10:58:19.160Z,96.20
2017-11-27T11:00:52.250Z,96.30
2017-11-27T11:03:19.742Z,96.50
2017-11-27T11:05:47.216Z,96.00
2017-11-27T11:08:14.677Z,96.30
2017-11-27T11:10:42.161Z,96.00
2017-11-27T11:13:09.641Z,95.80
2017-11-27T11:15:37.110Z,95.90
2017-11-27T11:18:05.356Z,95.70
2017-11-27T11:20:32.830Z,95.70
2017-11-27T11:23:00.378Z,95.80
2017-11-27T11:25:27.874Z,95.60
2017-11-27T11:27:55.356Z,95.70
2017-11-27T11:30:22.830Z,95.50
2017-11-27T11:32:50.907Z,95.80
2017-11-27T11:35:18.372Z,95.60
2017-11-27T11:37:45.833Z,95.50
2017-11-27T11:40:13.401Z,95.40
2017-11-27T11:42:40.910Z,95.80
2017-11-27T11:45:08.373Z,95.20
2017-11-27T11:47:35.829Z,95.40
2017-11-27T11:50:03.290Z,95.40
2017-11-27T11:52:30.741Z,95.50
2017-11-27T11:54:58.212Z,95.60
2017-11-27T11:57:25.809Z,95.70
2017-11-27T11:59:54.041Z,95.50
2017-11-27T12:02:21.527Z,95.50
2017-11-27T12:04:48.966Z,95.50
2017-11-27T12:07:17.135Z,96.00
2017-11-27T12:09:44.650Z,95.60
2017-11-27T12:12:12.115Z,96.00
2017-11-27T12:14:39.577Z,96.10
2017-11-27T12:17:07.041Z,96.00
2017-11-27T12:19:34.550Z,95.90
2017-11-27T12:22:02.008Z,96.20
2017-11-27T12:24:29.511Z,96.20
2017-11-27T12:26:56.970Z,96.00
2017-11-27T12:29:24.445Z,96.10
2017-11-27T12:31:51.914Z,96.10
2017-11-27T12:34:19.371Z,96.20
2017-11-27T12:36:46.856Z,96.20
2017-11-27T12:39:14.358Z,96.10
2017-11-27T12:41:41.829Z,96.40
2017-11-27T12:44:09.291Z,96.40
2017-11-27T12:46:36.804Z,96.20
2017-11-27T12:49:04.264Z,96.50
2017-11-27T12:51:31.716Z,96.20
2017-11-27T12:53:59.191Z,96.40
2017-11-27T12:56:26.671Z,96.50
2017-11-27T12:58:54.126Z,96.30
2017-11-27T13:01:21.605Z,95.90
2017-11-27T13:03:49.106Z,96.10
2017-11-27T13:06:16.575Z,96.10
2017-11-27T13:08:44.041Z,96.00
2017-11-27T13:11:11.502Z,96.10
2017-11-27T13:13:38.970Z,96.40
2017-11-27T13:16:06.432Z,96.20
2017-11-27T13:18:33.901Z,95.90
2017-11-27T13:21:01.377Z,96.00
2017-11-27T13:23:29.017Z,95.80
2017-11-27T13:25:56.481Z,95.70
2017-11-27T13:28:23.965Z,95.50
2017-11-27T13:30:52.193Z,95.90
2017-11-27T13:33:19.673Z,95.80
2017-11-27T13:35:47.904Z,96.20
2017-11-27T13:38:15.375Z,96.10
2017-11-27T13:40:42.843Z,96.30
2017-11-27T13:43:10.302Z,96.00
2017-11-27T13:45:37.782Z,96.20
2017-11-27T13:48:05.248Z,96.30
2017-11-27T13:50:33.477Z,96.20
2017-11-27T13:53:01.075Z,96.20
2017-11-27T13:55:28.561Z,96.20
2017-11-27T13:57:56.032Z,96.30
2017-11-27T14:00:23.492Z,96.30
2017-11-27T14:02:51.070Z,96.20
2017-11-27T14:05:18.531Z,96.40
2017-11-27T14:07:46.005Z,96.30
2017-11-27T14:10:13.561Z,96.50
2017-11-27T14:12:41.142Z,96.20
2017-11-27T14:15:09.482Z,96.30
2017-11-27T14:17:36.968Z,96.30
2017-11-27T14:20:04.486Z,96.30
2017-11-27T14:22:32.058Z,96.50
2017-11-27T14:24:59.521Z,96.40
2017-11-27T14:27:27.000Z,96.20
2017-11-27T14:29:54.489Z,96.30
2017-11-27T14:32:22.723Z,96.40
2017-11-27T14:34:50.284Z,96.40
2017-11-27T14:37:17.733Z,96.20
2017-11-27T14:39:45.971Z,96.30
2017-11-27T14:42:13.429Z,96.30
2017-11-27T14:44:40.946Z,96.10
2017-11-27T14:47:09.195Z,95.90
2017-11-27T14:49:36.658Z,95.90
2017-11-27T14:52:05.066Z,96.20
2017-11-27T14:54:33.307Z,96.00
2017-11-27T14:57:00.767Z,96.00
2017-11-27T14:59:28.237Z,96.00
2017-11-27T15:01:56.479Z,95.80
2017-11-27T15:04:23.964Z,95.80
2017-11-27T15:06:51.405Z,95.90
2017-11-27T15:09:18.891Z,95.80
2017-11-27T15:11:46.358Z,95.80
2017-11-27T15:14:14.596Z,95.60
2017-11-27T15:16:42.089Z,95.60
2017-11-27T15:19:10.328Z,95.90
2017-11-27T15:21:38.301Z,95.60
2017-11-27T15:24:05.798Z,95.60
2017-11-27T15:26:35.530Z,95.60
2017-11-27T15:29:02.990Z,95.50
2017-11-27T15:31:30.448Z,95.50
2017-11-27T15:33:57.903Z,95.60
2017-11-27T15:36:25.365Z,95.60
2017-11-27T15:38:52.860Z,95.70
2017-11-27T15:41:20.351Z,95.40
2017-11-27T15:43:48.598Z,95.70
2017-11-27T15:46:16.066Z,95.70
2017-11-27T15:48:44.315Z,95.60
2017-11-27T15:51:11.787Z,95.60
2017-11-27T15:53:39.258Z,95.60
2017-11-27T15:56:07.537Z,95.60
2017-11-27T15:58:35.863Z,95.40
2017-11-27T16:01:03.329Z,95.40
2017-11-27T16:03:30.798Z,95.30
2017-11-27T16:05:58.266Z,95.50
2017-11-27T16:08:25.750Z,95.20
2017-11-27T16:10:53.207Z,95.10
2017-11-27T16:13:20.670Z,95.00
2017-11-27T16:15:48.322Z,95.10
2017-11-27T16:18:16.557Z,95.10
2017-11-27T16:20:44.022Z,95.10
2017-11-27T16:23:11.475Z,95.00
2017-11-27T16:25:38.939Z,95.00
2017-11-27T16:28:07.179Z,95.10
2017-11-27T16:30:34.654Z,95.10
2017-11-27T16:33:02.974Z,95.20
2017-11-27T16:35:31.211Z,95.20
2017-11-27T16:37:58.786Z,95.20
2017-11-27T16:40:26.266Z,95.10
2017-11-27T16:42:53.724Z,95.00
2017-11-27T16:45:21.219Z,95.10
2017-11-27T16:47:48.673Z,95.20
2017-11-27T16:50:16.150Z,95.20
2017-11-27T16:52:43.631Z,95.20
2017-11-27T16:55:11.882Z,95.20
2017-11-27T16:57:39.334Z,95.20
2017-11-27T17:00:06.807Z,95.20
2017-11-27T17:02:34.305Z,95.20
2017-11-27T17:05:02.545Z,95.40
2017-11-27T17:07:30.031Z,95.40
2017-11-27T17:09:58.279Z,95.70
2017-11-27T17:12:26.522Z,96.00
2017-11-27T17:14:54.214Z,95.80
2017-11-27T17:17:21.683Z,96.00
2017-11-27T17:19:49.922Z,96.70
2017-11-27T17:22:17.367Z,96.70
2017-11-27T17:24:44.857Z,96.80
2017-11-27T17:27:12.306Z,96.80
2017-11-27T17:29:39.773Z,96.90
2017-11-27T17:32:07.279Z,97.10
2017-11-27T17:34:34.767Z,97.40
2017-11-27T17:37:02.223Z,97.20
2017-11-27T17:39:29.706Z,97.40
2017-11-27T17:41:57.190Z,97.30
2017-11-27T17:44:24.939Z,97.80
2017-11-27T17:46:53.477Z,97.70
2017-11-27T17:49:20.947Z,97.70
2017-11-27T17:51:48.471Z,97.80
2017-11-27T17:54:15.963Z,97.60
2017-11-27T17:56:44.312Z,97.70
2017-11-27T17:59:11.770Z,97.50
2017-11-27T18:01:39.428Z,97.30
2017-11-27T18:04:06.887Z,97.20
2017-11-27T18:06:34.378Z,97.30
2017-11-27T18:09:01.844Z,97.10
2017-11-27T18:11:29.319Z,97.20
2017-11-27T18:13:57.565Z,96.90
2017-11-27T18:16:25.025Z,96.90
2017-11-27T18:18:52.485Z,96.70
2017-11-27T18:21:20.064Z,96.70
2017-11-27T18:23:48.315Z,96.70
2017-11-27T18:26:15.899Z,96.70
2017-11-27T18:28:44.163Z,96.50
2017-11-27T18:31:11.629Z,96.50
2017-11-27T18:33:39.871Z,96.50
2017-11-27T18:36:07.402Z,96.50
2017-11-27T18:38:34.878Z,96.30
2017-11-27T18:41:02.341Z,96.30
2017-11-27T18:43:29.792Z,96.40
2017-11-27T18:45:57.264Z,96.30
2017-11-27T18:48:24.721Z,96.30
2017-11-27T18:50:52.189Z,96.30
2017-11-27T18:53:19.679Z,96.40
2017-11-27T18:55:47.137Z,96.20
2017-11-27T18:58:14.588Z,96.10
2017-11-27T19:00:42.217Z,96.20
2017-11-27T19:03:09.672Z,96.20
2017-11-27T19:05:37.203Z,95.90
2017-11-27T19:08:04.658Z,96.00
2017-11-27T19:10:32.128Z,96.00
2017-11-27T19:12:59.622Z,96.10
2017-11-27T19:15:27.847Z,96.30
2017-11-27T19:17:55.318Z,96.30
2017-11-27T19:20:22.788Z,96.50
2017-11-27T19:22:50.255Z,96.60
2017-11-27T19:25:17.963Z,96.90
2017-11-27T19:27:45.429Z,96.70
2017-11-27T19:30:12.886Z,96.80
2017-11-27T19:32:40.444Z,96.90
2017-11-27T19:35:07.944Z,96.70
2017-11-27T19:37:35.388Z,96.70
2017-11-27T19:40:02.978Z,96.60
2017-11-27T19:42:31.222Z,96.70
2017-11-27T19:44:58.780Z,96.70
2017-11-27T19:47:26.238Z,96.40
2017-11-27T19:49:53.862Z,96.30
2017-11-27T19:52:21.327Z,96.30
2017-11-27T19:54:48.886Z,96.20
2017-11-27T19:57:16.353Z,96.10
2017-11-27T19:59:43.809Z,95.90
2017-11-27T20:02:11.274Z,95.80
2017-11-27T20:04:38.737Z,95.70
2017-11-27T20:07:06.338Z,95.70
2017-11-27T20:09:34.580Z,95.50
2017-11-27T20:12:02.053Z,95.50
2017-11-27T20:14:29.511Z,95.40
2017-11-27T20:16:56.991Z,95.20
2017-11-27T20:19:25.314Z,95.40
2017-11-27T20:21:52.795Z,95.40
2017-11-27T20:24:20.266Z,95.10
2017-11-27T20:26:48.489Z,95.10
2017-11-27T20:29:16.062Z,95.10
2017-11-27T20:31:44.975Z,95.10
2017-11-27T20:34:12.432Z,95.00
2017-11-27T20:36:39.901Z,95.00
2017-11-27T20:39:08.165Z,95.00
2017-11-27T20:41:35.785Z,95.00
2017-11-27T20:44:03.261Z,94.80
2017-11-27T20:46:30.729Z,94.70
2017-11-27T20:48:58.310Z,94.50
2017-11-27T20:51:27.009Z,94.40
2017-11-27T20:53:54.485Z,94.40
2017-11-27T20:56:21.944Z,94.30
2017-11-27T20:58:49.461Z,94.50
2017-11-27T21:01:16.928Z,94.60
2017-11-27T21:03:45.170Z,94.90
2017-11-27T21:06:12.619Z,94.90
2017-11-27T21:08:40.160Z,94.90
2017-11-27T21:11:07.622Z,95.30
2017-11-27T21:13:35.093Z,95.20
2017-11-27T21:16:02.554Z,95.20
2017-11-27T21:18:30.019Z,95.10
2017-11-27T21:20:57.492Z,94.90
2017-11-27T21:23:24.965Z,95.00
2017-11-27T21:25:53.185Z,94.70
2017-11-27T21:28:20.689Z,94.60
2017-11-27T21:30:48.915Z,94.40
2017-11-27T21:33:16.471Z,94.40
2017-11-27T21:35:43.936Z,94.60
2017-11-27T21:38:11.417Z,93.40
2017-11-27T21:40:38.895Z,93.20
2017-11-27T21:43:07.131Z,94.10
2017-11-27T21:45:34.642Z,94.10
2017-11-27T21:48:02.159Z,94.60
2017-11-27T21:50:29.650Z,95.20
2017-11-27T21:52:57.862Z,95.60
2017-11-27T21:55:25.338Z,95.60
2017-11-27T21:57:52.793Z,95.60
2017-11-27T22:00:20.802Z,95.70
2017-11-27T22:02:49.198Z,95.70
2017-11-27T22:05:16.654Z,95.70
2017-11-27T22:07:44.129Z,95.70
2017-11-27T22:10:11.585Z,95.90
2017-11-27T22:12:39.109Z,95.90
2017-11-27T22:15:07.344Z,96.20
2017-11-27T22:17:34.810Z,96.20
2017-11-27T22:20:02.277Z,96.30
2017-11-27T22:22:29.856Z,96.10
2017-11-27T22:24:58.133Z,96.10
2017-11-27T22:27:26.350Z,96.10
2017-11-27T22:29:53.822Z,96.10
2017-11-27T22:32:21.289Z,96.20
2017-11-27T22:34:48.770Z,96.20
2017-11-27T22:37:16.228Z,95.90
2017-11-27T22:39:44.483Z,96.30
2017-11-27T22:42:11.940Z,96.00
2017-11-27T22:44:39.413Z,96.10
2017-11-27T22:47:07.759Z,95.90
2017-11-27T22:49:35.248Z,95.80
2017-11-27T22:52:03.475Z,95.90
2017-11-27T22:54:31.027Z,95.80
2017-11-27T22:56:58.486Z,95.70
2017-11-27T22:59:25.959Z,95.50
2017-11-27T23:01:53.427Z,95.70
2017-11-27T23:04:20.904Z,95.80
2017-11-27T23:06:48.487Z,95.60
2017-11-27T23:09:16.725Z,95.90
2017-11-27T23:11:45.689Z,95.80
2017-11-27T23:14:13.160Z,95.70
2017-11-27T23:16:40.630Z,95.90
2017-11-27T23:19:08.097Z,95.70
2017-11-27T23:21:35.570Z,95.50
2017-11-27T23:24:03.797Z,95.40
2017-11-27T23:26:31.372Z,95.40
2017-11-27T23:28:58.839Z,95.60
2017-11-27T23:31:26.298Z,95.30
2017-11-27T23:33:53.765Z,95.30
2017-11-27T23:36:22.007Z,95.40
2017-11-27T23:38:49.514Z,95.40
2017-11-27T23:41:17.734Z,95.30
2017-11-27T23:43:45.201Z,95.30
2017-11-27T23:46:12.659Z,95.30
2017-11-27T23:48:40.123Z,95.20
2017-11-27T23:51:07.566Z,95.20
2017-11-27T23:53:35.098Z,95.20
2017-11-27T23:56:02.559Z,95.30
2017-11-27T23:58:30.023Z,95.40
